createdAt,value
2022-12-04T00:01:53.442Z,0.10
2022-12-04T00:04:21.844Z,0.10
2022-12-04T00:06:54.128Z,0.00
2022-12-04T00:09:28.253Z,0.00
2022-12-04T00:11:56.572Z,0.00
2022-12-04T00:14:24.893Z,0.10
2022-12-04T00:16:53.272Z,0.10
2022-12-04T00:19:22.933Z,0.10
2022-12-04T00:21:53.522Z,0.10
2022-12-04T00:24:23.520Z,0.10
2022-12-04T00:27:13.332Z,0.20
2022-12-04T00:30:02.812Z,0.20
2022-12-04T00:32:32.588Z,0.20
2022-12-04T00:35:00.901Z,0.20
2022-12-04T00:37:29.181Z,0.20
2022-12-04T00:39:58.916Z,0.20
2022-12-04T00:42:28.866Z,0.20
2022-12-04T00:44:57.005Z,0.20
2022-12-04T00:47:26.522Z,0.20
2022-12-04T00:49:55.112Z,0.20
2022-12-04T00:52:23.998Z,0.10
2022-12-04T00:54:52.556Z,0.20
2022-12-04T00:57:20.926Z,0.20
2022-12-04T00:59:51.889Z,0.10
2022-12-04T01:02:20.492Z,0.20
2022-12-04T01:04:48.882Z,0.20
2022-12-04T01:07:17.378Z,0.10
2022-12-04T01:09:45.954Z,0.20
2022-12-04T01:12:20.407Z,0.20
2022-12-04T01:14:55.237Z,0.20
2022-12-04T01:17:24.567Z,0.20
2022-12-04T01:19:53.721Z,0.30
2022-12-04T01:22:22.314Z,0.30
2022-12-04T01:24:50.625Z,0.30
2022-12-04T01:27:46.641Z,0.30
2022-12-04T01:30:27.496Z,0.30
2022-12-04T01:32:55.756Z,0.20
2022-12-04T01:35:23.995Z,0.10
2022-12-04T01:37:52.259Z,0.20
2022-12-04T01:40:20.618Z,0.10
2022-12-04T01:42:48.822Z,0.20
2022-12-04T01:45:39.736Z,0.20
2022-12-04T01:48:18.103Z,0.20
2022-12-04T01:50:49.927Z,0.20
2022-12-04T01:53:19.166Z,0.30
2022-12-04T01:55:49.321Z,0.20
2022-12-04T01:58:20.585Z,0.20
2022-12-04T02:00:58.239Z,0.30
2022-12-04T02:03:26.785Z,0.30
2022-12-04T02:05:56.349Z,0.30
2022-12-04T02:08:25.058Z,0.20
2022-12-04T02:11:16.272Z,0.30
2022-12-04T02:13:55.882Z,0.30
2022-12-04T02:16:32.761Z,0.30
2022-12-04T02:19:09.025Z,0.40
2022-12-04T02:21:40.144Z,0.30
2022-12-04T02:24:33.156Z,0.20
2022-12-04T02:27:04.620Z,0.20
2022-12-04T02:30:14.284Z,0.30
2022-12-04T02:33:34.362Z,0.30
2022-12-04T02:36:10.915Z,0.20
2022-12-04T02:38:43.152Z,0.30
2022-12-04T02:41:14.650Z,0.40
2022-12-04T02:43:48.194Z,0.40
2022-12-04T02:46:26.369Z,0.40
2022-12-04T02:48:59.902Z,0.40
2022-12-04T02:51:34.451Z,0.40
2022-12-04T02:54:09.442Z,0.30
2022-12-04T02:57:21.791Z,0.30
2022-12-04T02:59:51.972Z,0.30
2022-12-04T03:02:26.691Z,0.40
2022-12-04T03:08:56.223Z,0.40
2022-12-04T03:11:52.978Z,0.40
2022-12-04T03:14:26.554Z,0.40
2022-12-04T03:17:10.234Z,0.30
2022-12-04T03:20:15.220Z,0.30
2022-12-04T03:22:51.578Z,0.30
2022-12-04T03:25:22.209Z,0.30
2022-12-04T03:27:58.776Z,0.40
2022-12-04T03:30:27.550Z,0.40
2022-12-04T03:33:01.284Z,0.40
2022-12-04T03:35:35.431Z,0.40
2022-12-04T03:38:08.398Z,0.30
2022-12-04T03:40:39.915Z,0.40
2022-12-04T03:43:14.801Z,0.40
2022-12-04T03:45:55.786Z,0.50
2022-12-04T03:48:27.582Z,0.40
2022-12-04T03:51:05.863Z,0.40
2022-12-04T03:53:40.751Z,0.40
2022-12-04T03:56:17.031Z,0.40
2022-12-04T03:58:49.958Z,0.40
2022-12-04T04:01:25.361Z,0.40
2022-12-04T04:03:59.474Z,0.40
2022-12-04T04:06:43.509Z,0.40
2022-12-04T04:09:19.651Z,0.50
2022-12-04T04:11:55.332Z,0.40
2022-12-04T04:14:51.018Z,0.50
2022-12-04T04:17:43.796Z,0.50
2022-12-04T04:20:35.281Z,0.50
2022-12-04T04:23:25.915Z,0.50
2022-12-04T04:25:56.029Z,0.50
2022-12-04T04:28:33.532Z,0.60
2022-12-04T04:31:11.197Z,0.60
2022-12-04T04:33:49.563Z,0.60
2022-12-04T04:36:27.171Z,0.60
2022-12-04T04:39:03.743Z,0.50
2022-12-04T04:45:04.792Z,0.40
2022-12-04T04:47:39.626Z,0.50
2022-12-04T04:50:13.327Z,0.40
2022-12-04T04:52:48.432Z,0.40
2022-12-04T04:55:20.991Z,0.40
2022-12-04T04:57:51.308Z,0.40
2022-12-04T05:00:25.966Z,0.40
2022-12-04T05:02:55.939Z,0.50
2022-12-04T05:05:26.191Z,0.50
2022-12-04T05:07:56.885Z,0.50
2022-12-04T05:10:26.682Z,0.50
2022-12-04T05:12:54.893Z,0.50
2022-12-04T05:15:32.704Z,0.50
2022-12-04T05:18:01.469Z,0.40
2022-12-04T05:20:39.521Z,0.40
2022-12-04T05:23:10.438Z,0.50
2022-12-04T05:25:40.133Z,0.50
2022-12-04T05:28:08.366Z,0.50
2022-12-04T05:30:36.605Z,0.40
2022-12-04T05:33:05.106Z,0.50
2022-12-04T05:35:37.350Z,0.40
2022-12-04T05:38:05.618Z,0.40
2022-12-04T05:40:35.594Z,0.40
2022-12-04T05:43:21.214Z,0.40
2022-12-04T05:45:52.346Z,0.30
2022-12-04T05:48:22.199Z,0.40
2022-12-04T05:50:50.611Z,0.40
2022-12-04T05:53:18.724Z,0.50
2022-12-04T05:55:55.203Z,0.60
2022-12-04T05:58:26.226Z,0.40
2022-12-04T06:00:54.502Z,0.50
2022-12-04T06:03:24.162Z,0.50
2022-12-04T06:09:13.004Z,0.50
2022-12-04T06:11:45.015Z,0.50
2022-12-04T06:14:17.179Z,0.60
2022-12-04T06:16:48.420Z,0.60
2022-12-04T06:19:20.576Z,0.60
2022-12-04T06:21:53.113Z,0.60
2022-12-04T06:24:24.047Z,0.50
2022-12-04T06:27:26.058Z,0.60
2022-12-04T06:29:48.219Z,0.50
2022-12-04T06:32:21.810Z,0.50
2022-12-04T06:34:53.767Z,0.50
2022-12-04T06:37:24.602Z,0.50
2022-12-04T06:39:54.363Z,0.60
2022-12-04T06:42:25.100Z,0.60
2022-12-04T06:44:54.889Z,0.50
2022-12-04T06:47:23.082Z,0.50
2022-12-04T06:49:52.302Z,0.50
2022-12-04T06:52:21.966Z,0.40
2022-12-04T06:55:02.884Z,0.50
2022-12-04T06:57:32.405Z,0.50
2022-12-04T07:00:05.727Z,0.50
2022-12-04T07:02:34.433Z,0.50
2022-12-04T07:05:18.019Z,0.50
2022-12-04T07:07:49.788Z,0.50
2022-12-04T07:10:21.442Z,0.50
2022-12-04T07:12:55.354Z,0.40
2022-12-04T07:15:26.464Z,0.60
2022-12-04T07:17:56.321Z,0.50
2022-12-04T07:20:24.553Z,0.50
2022-12-04T07:22:53.107Z,0.50
2022-12-04T07:25:22.523Z,0.60
2022-12-04T07:27:53.637Z,0.50
2022-12-04T07:30:22.131Z,0.50
2022-12-04T07:32:52.257Z,0.40
2022-12-04T07:35:21.725Z,0.50
2022-12-04T07:37:57.630Z,0.50
2022-12-04T07:40:27.180Z,0.50
2022-12-04T07:42:57.835Z,0.50
2022-12-04T07:45:29.210Z,0.50
2022-12-04T07:47:59.072Z,0.60
2022-12-04T07:50:27.398Z,0.60
2022-12-04T07:52:57.210Z,0.70
2022-12-04T07:55:25.652Z,0.80
2022-12-04T07:57:53.900Z,0.80
2022-12-04T08:00:23.647Z,0.80
2022-12-04T08:02:53.796Z,1.10
2022-12-04T08:05:25.844Z,1.40
2022-12-04T08:07:54.567Z,1.60
2022-12-04T08:10:24.161Z,1.90
2022-12-04T08:12:54.276Z,2.10
2022-12-04T08:15:22.999Z,1.90
2022-12-04T08:17:54.731Z,1.80
2022-12-04T08:20:26.443Z,1.70
2022-12-04T08:22:56.745Z,1.70
2022-12-04T08:25:25.327Z,1.50
2022-12-04T08:27:52.625Z,1.50
2022-12-04T08:30:24.507Z,1.50
2022-12-04T08:32:54.189Z,1.60
2022-12-04T08:35:25.108Z,1.70
2022-12-04T08:38:24.744Z,1.60
2022-12-04T08:41:59.011Z,1.80
2022-12-04T08:44:36.430Z,1.70
2022-12-04T08:47:06.147Z,1.70
2022-12-04T08:49:35.583Z,1.80
2022-12-04T08:54:56.172Z,1.80
2022-12-04T08:57:30.863Z,1.70
2022-12-04T09:00:11.651Z,1.60
2022-12-04T09:02:51.546Z,1.50
2022-12-04T09:05:20.692Z,1.40
2022-12-04T09:07:54.595Z,1.40
2022-12-04T09:10:25.517Z,1.50
2022-12-04T09:12:55.133Z,1.50
2022-12-04T09:15:24.106Z,1.50
2022-12-04T09:17:53.242Z,1.40
2022-12-04T09:20:23.276Z,1.40
2022-12-04T09:23:04.798Z,1.50
2022-12-04T09:25:35.821Z,1.70
2022-12-04T09:28:05.889Z,1.70
2022-12-04T09:30:34.299Z,1.70
2022-12-04T09:33:05.397Z,1.70
2022-12-04T09:35:35.812Z,1.70
2022-12-04T09:38:05.952Z,1.80
2022-12-04T09:40:44.362Z,1.90
2022-12-04T09:43:27.707Z,2.00
2022-12-04T09:46:03.652Z,2.10
2022-12-04T09:48:37.269Z,2.20
2022-12-04T09:51:19.248Z,2.10
2022-12-04T09:53:58.039Z,2.00
2022-12-04T09:56:30.903Z,1.80
2022-12-04T09:59:07.213Z,1.90
2022-12-04T10:01:45.109Z,1.80
2022-12-04T10:04:17.922Z,1.80
2022-12-04T10:06:52.616Z,1.60
2022-12-04T10:10:12.861Z,1.80
2022-12-04T10:12:54.305Z,1.80
2022-12-04T10:15:32.117Z,1.70
2022-12-04T10:18:29.353Z,1.90
2022-12-04T10:21:27.761Z,1.90
2022-12-04T10:24:10.798Z,1.80
2022-12-04T10:26:55.642Z,2.10
2022-12-04T10:29:38.822Z,2.00
2022-12-04T10:32:18.928Z,2.10
2022-12-04T10:34:54.872Z,1.90
2022-12-04T10:37:38.553Z,2.20
2022-12-04T10:40:29.707Z,2.10
2022-12-04T10:43:19.406Z,2.20
2022-12-04T10:45:48.105Z,2.10
2022-12-04T10:48:24.289Z,2.00
2022-12-04T10:50:54.922Z,2.20
2022-12-04T10:53:30.836Z,2.20
2022-12-04T10:56:10.601Z,2.30
2022-12-04T10:58:40.366Z,2.20
2022-12-04T11:01:13.672Z,2.30
2022-12-04T11:03:45.844Z,2.20
2022-12-04T11:06:16.016Z,2.30
2022-12-04T11:08:50.477Z,2.10
2022-12-04T11:11:27.268Z,2.20
2022-12-04T11:14:14.789Z,2.30
2022-12-04T11:16:45.849Z,2.40
2022-12-04T11:19:23.146Z,2.40
2022-12-04T11:21:53.035Z,2.40
2022-12-04T11:24:30.869Z,2.30
2022-12-04T11:27:10.683Z,2.20
2022-12-04T11:29:46.206Z,2.20
2022-12-04T11:32:26.639Z,2.30
2022-12-04T11:34:58.322Z,2.40
2022-12-04T11:41:16.666Z,2.30
2022-12-04T11:43:54.124Z,2.30
2022-12-04T11:46:31.685Z,2.30
2022-12-04T11:49:00.840Z,2.50
2022-12-04T11:51:42.394Z,2.40
2022-12-04T11:54:36.818Z,2.60
2022-12-04T11:57:51.276Z,2.40
2022-12-04T12:00:22.704Z,2.50
2022-12-04T12:03:15.064Z,2.50
2022-12-04T12:06:10.920Z,2.70
2022-12-04T12:09:01.260Z,2.40
2022-12-04T12:11:36.458Z,2.50
2022-12-04T12:14:14.467Z,2.40
2022-12-04T12:16:56.364Z,2.50
2022-12-04T12:19:44.967Z,2.50
2022-12-04T12:22:26.243Z,2.40
2022-12-04T12:25:03.950Z,2.40
2022-12-04T12:27:47.565Z,2.20
2022-12-04T12:30:21.575Z,2.30
2022-12-04T12:33:06.682Z,2.20
2022-12-04T12:35:45.986Z,2.30
2022-12-04T12:38:19.597Z,2.20
2022-12-04T12:40:52.209Z,2.20
2022-12-04T12:43:27.635Z,2.10
2022-12-04T12:46:27.346Z,2.10
2022-12-04T12:52:18.890Z,2.10
2022-12-04T12:54:53.566Z,2.00
2022-12-04T12:57:29.424Z,2.10
2022-12-04T13:00:04.858Z,2.10
2022-12-04T13:02:38.017Z,2.10
2022-12-04T13:05:15.075Z,2.10
2022-12-04T13:07:50.881Z,2.00
2022-12-04T13:10:24.254Z,2.10
2022-12-04T13:13:03.833Z,2.10
2022-12-04T13:15:42.281Z,2.00
2022-12-04T13:18:32.254Z,2.00
2022-12-04T13:21:10.316Z,2.10
2022-12-04T13:23:55.206Z,2.10
2022-12-04T13:26:38.531Z,1.90
2022-12-04T13:29:18.290Z,1.90
2022-12-04T13:31:59.210Z,1.90
2022-12-04T13:34:51.725Z,1.90
2022-12-04T13:37:57.299Z,2.00
2022-12-04T13:40:37.527Z,2.00
2022-12-04T13:43:29.361Z,2.00
2022-12-04T13:46:03.028Z,1.90
2022-12-04T13:48:37.996Z,2.00
2022-12-04T13:51:22.994Z,1.90
2022-12-04T13:54:25.204Z,2.00
2022-12-04T13:57:23.989Z,2.00
2022-12-04T14:03:04.425Z,2.10
2022-12-04T14:05:45.970Z,2.10
2022-12-04T14:08:26.201Z,2.00
2022-12-04T14:11:16.248Z,1.90
2022-12-04T14:13:49.614Z,2.00
2022-12-04T14:16:29.180Z,2.00
2022-12-04T14:18:59.837Z,2.00
2022-12-04T14:21:40.614Z,1.90
2022-12-04T14:24:19.592Z,1.90
2022-12-04T14:27:11.974Z,2.00
2022-12-04T14:33:02.211Z,1.90
2022-12-04T14:35:34.772Z,1.90
2022-12-04T14:38:07.655Z,1.90
2022-12-04T14:40:43.913Z,1.90
2022-12-04T14:43:23.314Z,1.90
2022-12-04T14:46:02.074Z,1.80
2022-12-04T14:48:50.829Z,1.80
2022-12-04T14:51:36.403Z,1.80
2022-12-04T14:58:19.994Z,1.70
2022-12-04T15:00:54.577Z,1.70
2022-12-04T15:03:27.654Z,1.60
2022-12-04T15:06:03.948Z,1.60
2022-12-04T15:08:38.065Z,1.60
2022-12-04T15:11:27.242Z,1.80
2022-12-04T15:14:42.140Z,1.70
2022-12-04T15:17:22.029Z,1.70
2022-12-04T15:22:26.739Z,1.70
2022-12-04T15:24:59.528Z,1.50
2022-12-04T15:27:32.684Z,1.60
2022-12-04T15:30:07.644Z,1.60
2022-12-04T15:32:46.119Z,1.60
2022-12-04T15:35:50.877Z,1.60
2022-12-04T15:42:05.083Z,1.50
2022-12-04T15:45:17.458Z,1.60
2022-12-04T15:48:47.795Z,1.60
2022-12-04T15:51:52.076Z,1.50
2022-12-04T15:54:25.186Z,1.50
2022-12-04T15:57:16.369Z,1.50
2022-12-04T15:59:54.586Z,1.50
2022-12-04T16:02:51.956Z,1.50
2022-12-04T16:05:47.140Z,1.50
2022-12-04T16:09:03.781Z,1.50
2022-12-04T16:11:44.125Z,1.50
2022-12-04T16:14:21.548Z,1.60
2022-12-04T16:17:00.053Z,1.60
2022-12-04T16:19:35.713Z,1.50
2022-12-04T16:22:20.272Z,1.60
2022-12-04T16:24:57.348Z,1.60
2022-12-04T16:27:42.626Z,1.60
2022-12-04T16:30:48.156Z,1.50
2022-12-04T16:33:45.721Z,1.50
2022-12-04T16:36:45.565Z,1.50
2022-12-04T16:39:30.902Z,1.50
2022-12-04T16:46:00.719Z,1.60
2022-12-04T16:48:34.970Z,1.60
2022-12-04T16:51:05.004Z,1.60
2022-12-04T16:53:38.997Z,1.60
2022-12-04T16:56:09.789Z,1.60
2022-12-04T16:58:45.634Z,1.60
2022-12-04T17:04:18.882Z,1.50
2022-12-04T17:06:58.419Z,1.50
2022-12-04T17:09:38.990Z,1.50
2022-12-04T17:12:30.627Z,1.50
2022-12-04T17:15:04.151Z,1.50
2022-12-04T17:17:33.089Z,1.50
2022-12-04T17:20:14.725Z,1.50
2022-12-04T17:22:47.006Z,1.50
2022-12-04T17:25:37.658Z,1.50
2022-12-04T17:28:06.471Z,1.50
2022-12-04T17:30:50.284Z,1.60
2022-12-04T17:34:15.635Z,1.60
2022-12-04T17:36:45.642Z,1.60
2022-12-04T17:39:13.963Z,1.60
2022-12-04T17:41:42.741Z,1.50
2022-12-04T17:44:14.573Z,1.50
2022-12-04T17:46:47.049Z,1.60
2022-12-04T17:49:15.628Z,1.50
2022-12-04T17:51:45.483Z,1.50
2022-12-04T17:54:16.688Z,1.50
2022-12-04T17:56:49.563Z,1.40
2022-12-04T17:59:23.404Z,1.50
2022-12-04T18:02:21.801Z,1.50
2022-12-04T18:07:28.502Z,1.50
2022-12-04T18:10:00.238Z,1.60
2022-12-04T18:12:30.124Z,1.60
2022-12-04T18:15:02.836Z,1.50
2022-12-04T18:17:33.239Z,1.60
2022-12-04T18:20:05.458Z,1.50
2022-12-04T18:22:52.200Z,1.40
2022-12-04T18:25:49.800Z,1.40
2022-12-04T18:28:42.617Z,1.40
2022-12-04T18:31:32.512Z,1.40
2022-12-04T18:34:32.851Z,1.50
2022-12-04T18:37:19.418Z,1.40
2022-12-04T18:40:01.118Z,1.40
2022-12-04T18:42:36.284Z,1.50
2022-12-04T18:45:07.961Z,1.50
2022-12-04T18:47:39.468Z,1.50
2022-12-04T18:50:09.428Z,1.50
2022-12-04T18:52:43.256Z,1.50
2022-12-04T18:55:28.794Z,1.50
2022-12-04T18:57:59.069Z,1.50
2022-12-04T19:00:44.874Z,1.50
2022-12-04T19:03:13.728Z,1.50
2022-12-04T19:05:50.670Z,1.50
2022-12-04T19:08:19.395Z,1.50
2022-12-04T19:10:51.374Z,1.40
2022-12-04T19:13:21.819Z,1.40
2022-12-04T19:15:56.750Z,1.40
2022-12-04T19:18:26.578Z,1.40
2022-12-04T19:20:56.630Z,1.40
2022-12-04T19:23:26.644Z,1.40
2022-12-04T19:26:04.633Z,1.30
2022-12-04T19:28:34.785Z,1.40
2022-12-04T19:31:05.027Z,1.40
2022-12-04T19:33:33.371Z,1.40
2022-12-04T19:36:03.792Z,1.50
2022-12-04T19:38:33.553Z,1.50
2022-12-04T19:41:14.421Z,1.40
2022-12-04T19:43:47.557Z,1.40
2022-12-04T19:46:23.073Z,1.40
2022-12-04T19:48:55.380Z,1.50
2022-12-04T19:51:25.510Z,1.50
2022-12-04T19:53:55.898Z,1.40
2022-12-04T19:56:28.701Z,1.40
2022-12-04T20:02:42.779Z,1.30
2022-12-04T20:05:11.957Z,1.40
2022-12-04T20:07:54.079Z,1.40
2022-12-04T20:10:26.522Z,1.40
2022-12-04T20:13:01.075Z,1.30
2022-12-04T20:15:32.553Z,1.40
2022-12-04T20:18:02.088Z,1.30
2022-12-04T20:20:30.529Z,1.30
2022-12-04T20:23:01.522Z,1.30
2022-12-04T20:25:29.863Z,1.30
2022-12-04T20:28:10.207Z,1.30
2022-12-04T20:33:17.451Z,1.40
2022-12-04T20:35:46.164Z,1.50
2022-12-04T20:38:16.128Z,1.40
2022-12-04T20:40:47.296Z,1.40
2022-12-04T20:43:19.958Z,1.40
2022-12-04T20:45:51.987Z,1.30
2022-12-04T20:48:20.459Z,1.40
2022-12-04T20:54:41.249Z,1.30
2022-12-04T20:57:20.171Z,1.40
2022-12-04T20:59:50.115Z,1.40
2022-12-04T21:02:32.439Z,1.40
2022-12-04T21:05:16.717Z,1.40
2022-12-04T21:07:46.324Z,1.40
2022-12-04T21:10:14.654Z,1.40
2022-12-04T21:13:03.392Z,1.40
2022-12-04T21:15:54.499Z,1.50
2022-12-04T21:18:23.165Z,1.30
2022-12-04T21:20:56.719Z,1.40
2022-12-04T21:24:04.299Z,1.30
2022-12-04T21:26:33.850Z,1.40
2022-12-04T21:29:03.111Z,1.40
2022-12-04T21:31:35.721Z,1.40
2022-12-04T21:34:44.685Z,1.50
2022-12-04T21:40:42.473Z,1.40
2022-12-04T21:43:11.878Z,1.40
2022-12-04T21:45:41.975Z,1.50
2022-12-04T21:48:13.471Z,1.50
2022-12-04T21:50:43.439Z,1.50
2022-12-04T21:53:14.447Z,1.50
2022-12-04T21:55:51.909Z,1.50
2022-12-04T21:58:21.835Z,1.50
2022-12-04T22:01:04.735Z,1.50
2022-12-04T22:07:04.901Z,1.50
2022-12-04T22:09:33.708Z,1.60
2022-12-04T22:12:04.231Z,1.50
2022-12-04T22:14:43.244Z,1.50
2022-12-04T22:17:11.579Z,1.40
2022-12-04T22:19:40.354Z,1.40
2022-12-04T22:22:24.190Z,1.50
2022-12-04T22:27:42.097Z,1.50
2022-12-04T22:30:31.477Z,1.60
2022-12-04T22:33:17.633Z,1.60
2022-12-04T22:35:52.166Z,1.60
2022-12-04T22:38:52.624Z,1.50
2022-12-04T22:41:29.061Z,1.50
2022-12-04T22:44:00.778Z,1.50
2022-12-04T22:46:30.915Z,1.50
2022-12-04T22:49:02.891Z,1.50
2022-12-04T22:51:31.603Z,1.50
2022-12-04T22:54:15.940Z,1.50
2022-12-04T22:56:47.620Z,1.50
2022-12-04T22:59:16.341Z,1.50
2022-12-04T23:01:48.897Z,1.50
2022-12-04T23:04:20.361Z,1.50
2022-12-04T23:09:19.882Z,1.50
2022-12-04T23:11:52.441Z,1.50
2022-12-04T23:14:21.045Z,1.50
2022-12-04T23:16:49.718Z,1.60
2022-12-04T23:19:20.264Z,1.60
2022-12-04T23:21:56.402Z,1.50
2022-12-04T23:24:26.951Z,1.50
2022-12-04T23:26:55.390Z,1.60
2022-12-04T23:29:51.286Z,1.50
2022-12-04T23:32:12.059Z,1.40
2022-12-04T23:34:40.665Z,1.40
2022-12-04T23:37:15.336Z,1.40
2022-12-04T23:39:47.512Z,1.40
2022-12-04T23:42:18.922Z,1.40
2022-12-04T23:44:47.404Z,1.40
2022-12-04T23:47:15.778Z,1.30
2022-12-04T23:49:48.161Z,1.40
2022-12-04T23:52:19.272Z,1.40
2022-12-04T23:54:49.665Z,1.50
2022-12-04T23:57:17.897Z,1.50
2022-12-04T23:59:56.408Z,1.50
